Canudos, Brazil
Current Conditions -  °F | °C
As of 2:00 PM on Friday 28 Nov 2014 (Local Time) from SBPL Reporting Station
Few Clouds Few Clouds  
Wind Chill: 97°   Ceiling: Unl
Heat Index: 102°   Visibility: 6mi
Dew Point: 68°   Wind: 12mph
Humidity: 39%   Direction: 170°S
Pressure: 29.88"   Gusts: NA
Location:  9.9°S, 39.03°W
Report Text: SBPL 281700Z 17010KT 9999 FEW040 36/20 Q1012
Loading
Personal Weather Stations






























Interactive Weather Map New forecast layout! Learn more

10-Day Weather Forecast

Advertisements
Track Severe Weather on mobile